createdAt,value
2019-03-05T00:00:54.550Z,990.99
2019-03-05T00:01:54.540Z,990.96
2019-03-05T00:02:54.529Z,990.98
2019-03-05T00:03:54.527Z,990.98
2019-03-05T00:04:54.507Z,990.96
2019-03-05T00:05:54.497Z,991.02
2019-03-05T00:06:54.486Z,990.98
2019-03-05T00:07:54.477Z,991.00
2019-03-05T00:08:54.461Z,991.04
2019-03-05T00:09:54.447Z,991.04
2019-03-05T00:10:54.435Z,991.08
2019-03-05T00:11:54.429Z,991.10
2019-03-05T00:12:54.417Z,991.09
2019-03-05T00:13:54.406Z,991.12
2019-03-05T00:14:54.393Z,991.09
2019-03-05T00:15:54.387Z,991.12
2019-03-05T00:16:54.375Z,991.17
2019-03-05T00:17:54.363Z,991.19
2019-03-05T00:18:54.356Z,991.09
2019-03-05T00:19:54.341Z,991.16
2019-03-05T00:20:54.329Z,991.14
2019-03-05T00:21:54.317Z,991.18
2019-03-05T00:22:54.309Z,991.16
2019-03-05T00:23:54.295Z,991.26
2019-03-05T00:24:54.288Z,991.30
2019-03-05T00:25:54.271Z,991.30
2019-03-05T00:26:54.259Z,991.36
2019-03-05T00:27:54.253Z,991.40
2019-03-05T00:28:54.242Z,991.36
2019-03-05T00:29:54.232Z,991.42
2019-03-05T00:30:54.220Z,991.48
2019-03-05T00:31:54.210Z,991.43
2019-03-05T00:32:54.196Z,991.47
2019-03-05T00:33:54.186Z,991.43
2019-03-05T00:34:54.177Z,991.50
2019-03-05T00:35:54.167Z,991.50
2019-03-05T00:36:54.156Z,991.58
2019-03-05T00:37:54.144Z,991.61
2019-03-05T00:38:54.134Z,991.60
2019-03-05T00:39:54.122Z,991.57
2019-03-05T00:40:54.114Z,991.58
2019-03-05T00:41:54.095Z,991.61
2019-03-05T00:42:54.093Z,991.53
2019-03-05T00:43:54.075Z,991.59
2019-03-05T00:44:54.076Z,991.61
2019-03-05T00:45:54.054Z,991.61
2019-03-05T00:46:54.050Z,991.66
2019-03-05T00:47:54.036Z,991.61
2019-03-05T00:48:54.022Z,991.57
2019-03-05T00:49:54.008Z,991.66
2019-03-05T00:50:54.004Z,991.56
2019-03-05T00:51:53.987Z,991.60
2019-03-05T00:52:53.979Z,991.55
2019-03-05T00:53:53.970Z,991.55
2019-03-05T00:54:53.958Z,991.58
2019-03-05T00:55:53.960Z,991.54
2019-03-05T00:56:53.948Z,991.47
2019-03-05T00:57:53.921Z,991.52
2019-03-05T00:58:53.906Z,991.54
2019-03-05T00:59:53.902Z,991.49
2019-03-05T01:00:53.887Z,991.47
2019-03-05T01:01:53.876Z,991.50
2019-03-05T01:02:53.866Z,991.43
2019-03-05T01:03:53.862Z,991.43
2019-03-05T01:04:53.842Z,991.35
2019-03-05T01:05:53.838Z,991.36
2019-03-05T01:06:53.826Z,991.38
2019-03-05T01:07:53.815Z,991.43
2019-03-05T01:08:53.804Z,991.49
2019-03-05T01:09:53.787Z,991.41
2019-03-05T01:10:53.782Z,991.48
2019-03-05T01:11:53.764Z,991.47
2019-03-05T01:12:53.755Z,991.44
2019-03-05T01:13:53.749Z,991.37
2019-03-05T01:14:53.734Z,991.36
2019-03-05T01:15:53.735Z,991.49
2019-03-05T01:16:53.718Z,991.43
2019-03-05T01:17:53.702Z,991.48
2019-03-05T01:18:53.694Z,991.34
2019-03-05T01:19:53.685Z,991.44
2019-03-05T01:20:53.663Z,991.37
2019-03-05T01:21:53.668Z,991.46
2019-03-05T01:22:53.646Z,991.42
2019-03-05T01:23:53.633Z,991.46
2019-03-05T01:24:53.625Z,991.39
2019-03-05T01:25:53.615Z,991.41
2019-03-05T01:26:53.601Z,991.43
2019-03-05T01:27:53.641Z,991.46
2019-03-05T01:28:53.579Z,991.41
2019-03-05T01:29:53.566Z,991.41
2019-03-05T01:30:53.566Z,991.36
2019-03-05T01:31:53.546Z,991.39
2019-03-05T01:32:53.542Z,991.47
2019-03-05T01:33:53.529Z,991.41
2019-03-05T01:34:53.516Z,991.42
2019-03-05T01:35:53.506Z,991.38
2019-03-05T01:36:53.499Z,991.35
2019-03-05T01:37:53.481Z,991.34
2019-03-05T01:38:53.471Z,991.31
2019-03-05T01:39:53.461Z,991.36
2019-03-05T01:40:53.445Z,991.32
2019-03-05T01:41:53.444Z,991.37
2019-03-05T01:42:53.425Z,991.33
2019-03-05T01:43:53.416Z,991.30
2019-03-05T01:44:53.403Z,991.31
2019-03-05T01:45:53.395Z,991.33
2019-03-05T01:46:53.379Z,991.31
2019-03-05T01:47:53.375Z,991.30
2019-03-05T01:48:53.357Z,991.33
2019-03-05T01:49:53.350Z,991.30
2019-03-05T01:50:53.344Z,991.31
2019-03-05T01:51:53.336Z,991.30
2019-03-05T01:52:53.315Z,991.24
2019-03-05T01:53:53.308Z,991.22
2019-03-05T01:54:53.297Z,991.25
2019-03-05T01:55:53.285Z,991.26
2019-03-05T01:56:53.273Z,991.24
2019-03-05T01:57:53.269Z,991.20
2019-03-05T01:58:53.251Z,991.19
2019-03-05T01:59:53.241Z,991.13
2019-03-05T02:00:53.227Z,991.09
2019-03-05T02:01:53.214Z,991.14
2019-03-05T02:02:53.207Z,991.08
2019-03-05T02:03:53.194Z,991.13
2019-03-05T02:04:53.183Z,991.15
2019-03-05T02:05:53.180Z,991.12
2019-03-05T02:06:53.162Z,991.12
2019-03-05T02:07:53.159Z,991.08
2019-03-05T02:08:53.138Z,991.11
2019-03-05T02:09:53.130Z,991.14
2019-03-05T02:10:53.130Z,991.12
2019-03-05T02:11:53.110Z,991.14
2019-03-05T02:12:53.096Z,991.10
2019-03-05T02:13:53.081Z,991.11
2019-03-05T02:14:53.075Z,991.11
2019-03-05T02:15:53.056Z,991.07
2019-03-05T02:16:53.049Z,991.10
2019-03-05T02:17:53.038Z,991.16
2019-03-05T02:18:53.029Z,991.12
2019-03-05T02:19:53.015Z,991.13
2019-03-05T02:20:53.006Z,991.14
2019-03-05T02:21:52.995Z,991.18
2019-03-05T02:22:52.989Z,991.21
2019-03-05T02:23:52.979Z,991.21
2019-03-05T02:24:52.962Z,991.17
2019-03-05T02:25:52.951Z,991.23
2019-03-05T02:26:52.937Z,991.17
2019-03-05T02:27:52.926Z,991.23
2019-03-05T02:28:52.919Z,991.22
2019-03-05T02:29:52.911Z,991.22
2019-03-05T02:30:52.897Z,991.21
2019-03-05T02:31:52.889Z,991.18
2019-03-05T02:32:52.874Z,991.14
2019-03-05T02:33:52.865Z,991.17
2019-03-05T02:34:52.853Z,991.08
2019-03-05T02:35:52.846Z,991.17
2019-03-05T02:36:52.836Z,991.09
2019-03-05T02:37:52.818Z,991.18
2019-03-05T02:38:52.811Z,991.15
2019-03-05T02:39:52.803Z,991.13
2019-03-05T02:40:52.802Z,991.10
2019-03-05T02:41:52.774Z,991.16
2019-03-05T02:42:52.763Z,991.08
2019-03-05T02:43:52.752Z,991.11
2019-03-05T02:44:52.743Z,991.10
2019-03-05T02:45:52.728Z,991.09
2019-03-05T02:46:52.716Z,991.13
2019-03-05T02:47:52.706Z,991.12
2019-03-05T02:48:52.700Z,991.13
2019-03-05T02:49:52.685Z,991.10
2019-03-05T02:50:52.696Z,991.10
2019-03-05T02:51:52.668Z,991.09
2019-03-05T02:52:52.665Z,991.10
2019-03-05T02:53:52.641Z,991.05
2019-03-05T02:54:52.642Z,991.09
2019-03-05T02:55:52.618Z,991.14
2019-03-05T02:56:52.608Z,991.17
2019-03-05T02:57:52.597Z,991.14
2019-03-05T02:58:52.586Z,991.14
2019-03-05T02:59:52.574Z,991.14
2019-03-05T03:00:52.561Z,991.14
2019-03-05T03:01:52.555Z,991.14
2019-03-05T03:02:52.544Z,991.23
2019-03-05T03:03:52.533Z,991.19
2019-03-05T03:04:52.520Z,991.20
2019-03-05T03:05:52.505Z,991.13
2019-03-05T03:06:52.497Z,991.18
2019-03-05T03:07:52.483Z,991.21
2019-03-05T03:08:52.469Z,991.23
2019-03-05T03:09:52.461Z,991.20
2019-03-05T03:10:52.452Z,991.24
2019-03-05T03:11:52.439Z,991.25
2019-03-05T03:12:52.433Z,991.30
2019-03-05T03:13:52.425Z,991.38
2019-03-05T03:14:52.409Z,991.30
2019-03-05T03:15:52.397Z,991.29
2019-03-05T03:16:52.385Z,991.31
2019-03-05T03:17:52.398Z,991.30
2019-03-05T03:18:52.364Z,991.27
2019-03-05T03:19:52.352Z,991.23
2019-03-05T03:20:52.339Z,991.24
2019-03-05T03:21:52.372Z,991.13
2019-03-05T03:22:52.321Z,991.20
2019-03-05T03:23:52.310Z,991.22
2019-03-05T03:24:52.295Z,991.20
2019-03-05T03:25:52.282Z,991.22
2019-03-05T03:26:52.279Z,991.32
2019-03-05T03:27:52.385Z,991.19
2019-03-05T03:28:52.255Z,991.30
2019-03-05T03:29:52.256Z,991.29
2019-03-05T03:30:52.234Z,991.26
2019-03-05T03:31:52.230Z,991.25
2019-03-05T03:32:52.217Z,991.25
2019-03-05T03:33:52.199Z,991.27
2019-03-05T03:34:52.186Z,991.30
2019-03-05T03:35:52.211Z,991.24
2019-03-05T03:36:52.164Z,991.23
2019-03-05T03:37:52.160Z,991.31
2019-03-05T03:38:52.141Z,991.27
2019-03-05T03:39:52.134Z,991.26
2019-03-05T03:40:52.130Z,991.29
2019-03-05T03:41:52.108Z,991.27
2019-03-05T03:42:52.098Z,991.25
2019-03-05T03:43:52.087Z,991.35
2019-03-05T03:44:52.086Z,991.32
2019-03-05T03:45:52.068Z,991.34
2019-03-05T03:46:52.054Z,991.35
2019-03-05T03:47:52.047Z,991.34
2019-03-05T03:48:52.032Z,991.31
2019-03-05T03:49:52.016Z,991.32
2019-03-05T03:50:52.009Z,991.35
2019-03-05T03:51:51.997Z,991.35
2019-03-05T03:52:51.987Z,991.35
2019-03-05T03:53:51.980Z,991.34
2019-03-05T03:54:51.965Z,991.34
2019-03-05T03:55:51.957Z,991.30
2019-03-05T03:56:51.943Z,991.29
2019-03-05T03:57:51.934Z,991.30
2019-03-05T03:58:51.929Z,991.36
2019-03-05T03:59:51.910Z,991.43
2019-03-05T04:00:51.902Z,991.34
2019-03-05T04:01:51.895Z,991.34
2019-03-05T04:02:51.880Z,991.32
2019-03-05T04:03:51.865Z,991.29
2019-03-05T04:04:51.853Z,991.33
2019-03-05T04:05:51.842Z,991.27
2019-03-05T04:06:51.833Z,991.25
2019-03-05T04:07:51.822Z,991.36
2019-03-05T04:08:51.810Z,991.34
2019-03-05T04:09:51.796Z,991.27
2019-03-05T04:10:51.791Z,991.33
2019-03-05T04:11:51.775Z,991.37
2019-03-05T04:12:51.766Z,991.34
2019-03-05T04:13:51.752Z,991.33
2019-03-05T04:14:51.744Z,991.41
2019-03-05T04:15:51.729Z,991.42
2019-03-05T04:16:51.716Z,991.41
2019-03-05T04:17:51.724Z,991.40
2019-03-05T04:18:51.697Z,991.35
2019-03-05T04:19:51.690Z,991.36
2019-03-05T04:20:51.679Z,991.45
2019-03-05T04:21:51.658Z,991.43
2019-03-05T04:22:51.656Z,991.43
2019-03-05T04:23:51.738Z,991.40
2019-03-05T04:24:51.629Z,991.42
2019-03-05T04:25:51.617Z,991.43
2019-03-05T04:26:51.607Z,991.44
2019-03-05T04:27:51.594Z,991.52
2019-03-05T04:28:51.582Z,991.46
2019-03-05T04:29:51.575Z,991.50
2019-03-05T04:30:51.569Z,991.52
2019-03-05T04:31:51.556Z,991.55
2019-03-05T04:32:51.543Z,991.55
2019-03-05T04:33:51.524Z,991.53
2019-03-05T04:34:51.520Z,991.59
2019-03-05T04:35:51.506Z,991.58
2019-03-05T04:36:51.511Z,991.54
2019-03-05T04:37:51.482Z,991.59
2019-03-05T04:38:51.471Z,991.56
2019-03-05T04:39:51.467Z,991.55
2019-03-05T04:40:51.446Z,991.61
2019-03-05T04:41:51.439Z,991.56
2019-03-05T04:42:51.428Z,991.57
2019-03-05T04:43:51.416Z,991.57
2019-03-05T04:44:51.410Z,991.55
2019-03-05T04:45:51.394Z,991.44
2019-03-05T04:46:51.384Z,991.52
2019-03-05T04:47:51.374Z,991.48
2019-03-05T04:48:51.362Z,991.46
2019-03-05T04:49:51.352Z,991.46
2019-03-05T04:50:51.341Z,991.48
2019-03-05T04:51:51.324Z,991.43
2019-03-05T04:52:51.313Z,991.37
2019-03-05T04:53:51.302Z,991.43
2019-03-05T04:54:51.295Z,991.43
2019-03-05T04:55:51.285Z,991.45
2019-03-05T04:56:51.271Z,991.46
2019-03-05T04:57:51.261Z,991.48
2019-03-05T04:58:51.248Z,991.42
2019-03-05T04:59:51.238Z,991.49
2019-03-05T05:00:51.230Z,991.51
2019-03-05T05:01:51.221Z,991.46
2019-03-05T05:02:51.207Z,991.47
2019-03-05T05:03:51.196Z,991.50
2019-03-05T05:04:51.180Z,991.50
2019-03-05T05:05:51.167Z,991.40
2019-03-05T05:06:51.159Z,991.44
2019-03-05T05:07:51.151Z,991.43
2019-03-05T05:08:51.139Z,991.40
2019-03-05T05:09:51.133Z,991.43
2019-03-05T05:10:51.114Z,991.37
2019-03-05T05:11:51.102Z,991.40
2019-03-05T05:12:51.094Z,991.44
2019-03-05T05:13:51.080Z,991.53
2019-03-05T05:14:51.071Z,991.47
2019-03-05T05:15:51.060Z,991.49
2019-03-05T05:16:51.047Z,991.51
2019-03-05T05:17:51.038Z,991.53
2019-03-05T05:18:51.023Z,991.48
2019-03-05T05:19:51.012Z,991.50
2019-03-05T05:20:51.010Z,991.50
2019-03-05T05:21:50.991Z,991.49
2019-03-05T05:22:50.982Z,991.42
2019-03-05T05:23:50.971Z,991.46
2019-03-05T05:24:50.956Z,991.46
2019-03-05T05:25:50.954Z,991.48
2019-03-05T05:26:50.936Z,991.47
2019-03-05T05:27:50.932Z,991.42
2019-03-05T05:28:50.912Z,991.51
2019-03-05T05:29:50.902Z,991.44
2019-03-05T05:30:50.894Z,991.42
2019-03-05T05:31:50.883Z,991.51
2019-03-05T05:32:50.876Z,991.47
2019-03-05T05:33:50.864Z,991.46
2019-03-05T05:34:50.854Z,991.49
2019-03-05T05:35:50.839Z,991.42
2019-03-05T05:36:50.830Z,991.39
2019-03-05T05:37:50.815Z,991.48
2019-03-05T05:38:50.809Z,991.47
2019-03-05T05:39:50.791Z,991.47
2019-03-05T05:40:50.784Z,991.49
2019-03-05T05:41:50.773Z,991.45
2019-03-05T05:42:50.761Z,991.45
2019-03-05T05:43:50.749Z,991.49
2019-03-05T05:44:50.736Z,991.49
2019-03-05T05:45:50.725Z,991.51
2019-03-05T05:46:50.722Z,991.55
2019-03-05T05:47:50.707Z,991.55
2019-03-05T05:48:50.689Z,991.65
2019-03-05T05:49:50.683Z,991.61
2019-03-05T05:50:50.667Z,991.64
2019-03-05T05:51:50.662Z,991.60
2019-03-05T05:52:50.652Z,991.63
2019-03-05T05:53:50.637Z,991.66
2019-03-05T05:54:50.627Z,991.62
2019-03-05T05:55:50.620Z,991.56
2019-03-05T05:56:50.601Z,991.62
2019-03-05T05:57:50.590Z,991.63
2019-03-05T05:58:50.586Z,991.62
2019-03-05T05:59:50.576Z,991.62
2019-03-05T06:00:50.654Z,991.67
2019-03-05T06:01:50.554Z,991.64
2019-03-05T06:02:50.541Z,991.62
2019-03-05T06:03:50.529Z,991.69
2019-03-05T06:04:50.521Z,991.68
2019-03-05T06:05:50.510Z,991.68
2019-03-05T06:06:50.498Z,991.69
2019-03-05T06:07:50.486Z,991.71
2019-03-05T06:08:50.473Z,991.75
2019-03-05T06:09:50.468Z,991.82
2019-03-05T06:10:52.697Z,991.79
2019-03-05T06:11:50.438Z,991.79
2019-03-05T06:12:50.433Z,991.76
2019-03-05T06:13:50.419Z,991.76
2019-03-05T06:14:50.408Z,991.74
2019-03-05T06:15:50.408Z,991.77
2019-03-05T06:16:50.391Z,991.78
2019-03-05T06:17:50.372Z,991.81
2019-03-05T06:18:50.364Z,991.76
2019-03-05T06:19:50.351Z,991.81
2019-03-05T06:20:50.340Z,991.77
2019-03-05T06:21:50.329Z,991.82
2019-03-05T06:22:50.322Z,991.82
2019-03-05T06:23:50.309Z,991.90
2019-03-05T06:24:50.299Z,992.00
2019-03-05T06:25:50.285Z,992.03
2019-03-05T06:26:50.276Z,991.93
2019-03-05T06:27:50.264Z,991.93
2019-03-05T06:28:50.259Z,991.92
2019-03-05T06:29:50.251Z,991.92
2019-03-05T06:30:50.232Z,991.96
2019-03-05T06:31:50.227Z,991.96
2019-03-05T06:32:50.214Z,991.92
2019-03-05T06:33:50.195Z,991.95
2019-03-05T06:34:50.260Z,991.97
2019-03-05T06:35:50.181Z,991.93
2019-03-05T06:36:50.166Z,991.94
2019-03-05T06:37:50.155Z,991.98
2019-03-05T06:38:50.142Z,991.98
2019-03-05T06:39:50.131Z,991.94
2019-03-05T06:40:50.121Z,992.02
2019-03-05T06:41:50.106Z,992.03
2019-03-05T06:42:50.098Z,992.03
2019-03-05T06:43:50.086Z,992.06
2019-03-05T06:44:50.077Z,992.11
2019-03-05T06:45:50.063Z,992.05
2019-03-05T06:46:50.047Z,992.06
2019-03-05T06:47:50.039Z,992.08
2019-03-05T06:48:50.026Z,992.03
2019-03-05T06:49:50.023Z,992.03
2019-03-05T06:50:50.001Z,992.12
2019-03-05T06:51:49.990Z,992.10
2019-03-05T06:52:49.979Z,992.18
2019-03-05T06:53:49.971Z,992.19
2019-03-05T06:54:49.961Z,992.30
2019-03-05T06:55:49.953Z,992.30
2019-03-05T06:56:49.940Z,992.30
2019-03-05T06:57:49.931Z,992.34
2019-03-05T06:58:49.921Z,992.22
2019-03-05T06:59:49.907Z,992.33
2019-03-05T07:00:49.898Z,992.33
2019-03-05T07:01:49.885Z,992.31
2019-03-05T07:02:49.881Z,992.30
2019-03-05T07:03:49.861Z,992.22
2019-03-05T07:04:49.849Z,992.30
2019-03-05T07:05:49.842Z,992.30
2019-03-05T07:06:49.828Z,992.29
2019-03-05T07:07:49.820Z,992.38
2019-03-05T07:08:49.824Z,992.40
2019-03-05T07:09:49.804Z,992.45
2019-03-05T07:10:49.784Z,992.37
2019-03-05T07:11:49.776Z,992.40
2019-03-05T07:12:49.760Z,992.34
2019-03-05T07:13:49.754Z,992.39
2019-03-05T07:14:49.738Z,992.41
2019-03-05T07:15:49.733Z,992.42
2019-03-05T07:16:49.721Z,992.38
2019-03-05T07:17:49.709Z,992.43
2019-03-05T07:18:49.696Z,992.41
2019-03-05T07:19:57.667Z,992.44
2019-03-05T07:20:50.674Z,992.49
2019-03-05T07:21:49.659Z,992.43
2019-03-05T07:22:49.658Z,992.50
2019-03-05T07:23:49.637Z,992.46
2019-03-05T07:24:49.626Z,992.56
2019-03-05T07:25:49.615Z,992.55
2019-03-05T07:26:49.610Z,992.55
2019-03-05T07:27:49.595Z,992.55
2019-03-05T07:28:49.587Z,992.58
2019-03-05T07:29:49.577Z,992.58
2019-03-05T07:30:49.563Z,992.62
2019-03-05T07:31:49.550Z,992.71
2019-03-05T07:32:49.541Z,992.63
2019-03-05T07:33:49.525Z,992.70
2019-03-05T07:34:49.517Z,992.68
2019-03-05T07:35:49.503Z,992.66
2019-03-05T07:36:49.500Z,992.64
2019-03-05T07:37:49.483Z,992.72
2019-03-05T07:38:49.472Z,992.71
2019-03-05T07:39:49.469Z,992.71
2019-03-05T07:40:49.449Z,992.78
2019-03-05T07:41:49.437Z,992.74
2019-03-05T07:42:49.434Z,992.73
2019-03-05T07:43:49.419Z,992.75
2019-03-05T07:44:49.411Z,992.81
2019-03-05T07:45:49.399Z,992.80
2019-03-05T07:46:49.384Z,992.81
2019-03-05T07:47:49.375Z,992.83
2019-03-05T07:48:49.369Z,992.79
2019-03-05T07:49:49.355Z,992.80
2019-03-05T07:50:49.339Z,992.84
2019-03-05T07:51:49.329Z,992.80
2019-03-05T07:52:49.320Z,992.81
2019-03-05T07:53:49.307Z,992.78
2019-03-05T07:54:49.291Z,992.85
2019-03-05T07:55:49.284Z,992.81
2019-03-05T07:56:49.271Z,992.79
2019-03-05T07:57:49.266Z,992.86
2019-03-05T07:58:49.255Z,992.79
2019-03-05T07:59:49.238Z,992.86
2019-03-05T08:00:49.225Z,992.88
2019-03-05T08:01:49.218Z,992.88
2019-03-05T08:02:49.206Z,992.92
2019-03-05T08:03:49.196Z,992.96
2019-03-05T08:04:49.187Z,992.91
2019-03-05T08:05:49.191Z,992.92
2019-03-05T08:06:49.161Z,992.90
2019-03-05T08:07:49.155Z,992.94
2019-03-05T08:08:49.140Z,992.93
2019-03-05T08:09:49.127Z,992.88
2019-03-05T08:10:49.119Z,993.02
2019-03-05T08:11:49.111Z,992.97
2019-03-05T08:12:49.096Z,992.94
2019-03-05T08:13:49.085Z,992.93
2019-03-05T08:14:49.074Z,992.96
2019-03-05T08:15:49.094Z,992.97
2019-03-05T08:16:49.049Z,993.06
2019-03-05T08:17:49.043Z,993.07
2019-03-05T08:18:49.030Z,993.08
2019-03-05T08:19:49.015Z,993.11
2019-03-05T08:20:49.008Z,993.11
2019-03-05T08:21:48.995Z,993.13
2019-03-05T08:22:48.989Z,993.10
2019-03-05T08:23:48.971Z,993.03
2019-03-05T08:24:48.968Z,993.04
2019-03-05T08:25:48.950Z,993.05
2019-03-05T08:26:48.943Z,993.01
2019-03-05T08:27:50.707Z,993.06
2019-03-05T08:28:48.917Z,993.09
2019-03-05T08:29:48.909Z,993.02
2019-03-05T08:30:48.897Z,993.09
2019-03-05T08:31:48.908Z,993.15
2019-03-05T08:32:48.873Z,993.00
2019-03-05T08:33:48.866Z,993.05
2019-03-05T08:34:48.852Z,993.06
2019-03-05T08:35:48.839Z,993.08
2019-03-05T08:36:48.825Z,993.08
2019-03-05T08:37:48.821Z,993.05
2019-03-05T08:38:48.805Z,993.05
2019-03-05T08:39:48.791Z,993.07
2019-03-05T08:40:48.785Z,993.13
2019-03-05T08:41:48.768Z,993.13
2019-03-05T08:42:48.763Z,993.09
2019-03-05T08:43:48.752Z,992.97
2019-03-05T08:44:50.614Z,993.04
2019-03-05T08:45:48.731Z,993.01
2019-03-05T08:46:48.714Z,993.02
2019-03-05T08:47:48.705Z,993.01
2019-03-05T08:48:48.693Z,992.94
2019-03-05T08:49:48.685Z,992.97
2019-03-05T08:50:48.669Z,992.90
2019-03-05T08:51:48.662Z,992.97
2019-03-05T08:52:48.649Z,992.94
2019-03-05T08:53:49.883Z,992.93
2019-03-05T08:54:48.627Z,992.87
2019-03-05T08:55:48.615Z,992.90
2019-03-05T08:56:48.610Z,992.90
2019-03-05T08:57:48.593Z,992.90
2019-03-05T08:58:48.600Z,992.83
2019-03-05T08:59:48.578Z,992.79
2019-03-05T09:00:48.571Z,992.90
2019-03-05T09:01:48.548Z,992.96
2019-03-05T09:02:49.428Z,992.88
2019-03-05T09:03:48.528Z,992.83
2019-03-05T09:04:48.515Z,992.85
2019-03-05T09:05:48.506Z,992.85
2019-03-05T09:06:48.494Z,992.84
2019-03-05T09:07:48.487Z,992.89
2019-03-05T09:08:48.474Z,992.81
2019-03-05T09:09:48.458Z,992.91
2019-03-05T09:10:48.454Z,992.84
2019-03-05T09:11:48.446Z,992.91
2019-03-05T09:12:48.424Z,993.00
2019-03-05T09:13:48.414Z,992.95
2019-03-05T09:14:48.409Z,992.92
2019-03-05T09:15:48.397Z,993.00
2019-03-05T09:16:48.391Z,992.98
2019-03-05T09:17:48.380Z,992.99
2019-03-05T09:18:48.364Z,992.97
2019-03-05T09:19:48.349Z,992.89
2019-03-05T09:20:48.340Z,992.97
2019-03-05T09:21:49.339Z,992.98
2019-03-05T09:22:48.319Z,993.00
2019-03-05T09:23:48.310Z,992.92
2019-03-05T09:24:48.295Z,992.89
2019-03-05T09:25:48.287Z,992.84
2019-03-05T09:26:51.393Z,992.91
2019-03-05T09:27:48.269Z,992.85
2019-03-05T09:28:48.260Z,992.87
2019-03-05T09:29:48.244Z,992.86
2019-03-05T09:30:48.255Z,992.85
2019-03-05T09:31:48.226Z,992.84
2019-03-05T09:32:48.211Z,992.87
2019-03-05T09:33:48.199Z,992.90
2019-03-05T09:34:48.184Z,992.94
2019-03-05T09:35:48.172Z,992.96
2019-03-05T09:36:51.313Z,992.97
2019-03-05T09:37:48.161Z,992.95
2019-03-05T09:38:48.145Z,992.95
2019-03-05T09:39:48.135Z,992.91
2019-03-05T09:40:48.116Z,992.96
2019-03-05T09:41:48.112Z,993.03
2019-03-05T09:42:48.105Z,993.18
2019-03-05T09:43:48.089Z,993.20
2019-03-05T09:44:48.079Z,992.97
2019-03-05T09:45:48.070Z,993.05
2019-03-05T09:46:48.053Z,992.99
2019-03-05T09:47:48.038Z,992.99
2019-03-05T09:48:48.026Z,993.03
2019-03-05T09:49:48.020Z,993.02
2019-03-05T09:50:48.010Z,993.07
2019-03-05T09:51:47.997Z,993.10
2019-03-05T09:52:54.808Z,993.10
2019-03-05T09:53:48.999Z,993.09
2019-03-05T09:54:47.956Z,993.10
2019-03-05T09:55:47.951Z,993.13
2019-03-05T09:56:47.946Z,993.19
2019-03-05T09:57:47.956Z,993.12
2019-03-05T09:58:47.921Z,993.13
2019-03-05T09:59:47.925Z,993.10
2019-03-05T10:00:47.897Z,993.12
2019-03-05T10:01:47.887Z,993.18
2019-03-05T10:02:47.874Z,993.12
2019-03-05T10:03:47.866Z,993.19
2019-03-05T10:04:47.855Z,993.15
2019-03-05T10:05:47.845Z,993.14
2019-03-05T10:06:47.834Z,993.21
2019-03-05T10:07:47.820Z,993.19
2019-03-05T10:08:47.803Z,993.14
2019-03-05T10:09:47.798Z,993.08
2019-03-05T10:10:47.786Z,993.11
2019-03-05T10:11:47.777Z,993.37
2019-03-05T10:12:47.761Z,993.15
2019-03-05T10:13:47.754Z,993.22
2019-03-05T10:14:47.746Z,993.16
2019-03-05T10:15:47.734Z,993.16
2019-03-05T10:16:47.721Z,993.17
2019-03-05T10:17:49.890Z,993.12
2019-03-05T10:18:47.702Z,993.09
2019-03-05T10:19:47.679Z,993.36
2019-03-05T10:20:47.673Z,993.41
2019-03-05T10:21:47.659Z,993.42
2019-03-05T10:22:47.658Z,993.54
2019-03-05T10:23:47.639Z,993.50
2019-03-05T10:24:47.629Z,993.25
2019-03-05T10:25:47.648Z,993.18
2019-03-05T10:26:47.608Z,993.14
2019-03-05T10:27:47.596Z,993.17
2019-03-05T10:28:47.587Z,993.18
2019-03-05T10:29:47.573Z,993.12
2019-03-05T10:30:47.564Z,993.14
2019-03-05T10:31:47.565Z,993.16
2019-03-05T10:32:47.543Z,993.16
2019-03-05T10:33:47.532Z,993.23
2019-03-05T10:34:47.515Z,993.22
2019-03-05T10:35:47.508Z,993.20
2019-03-05T10:36:47.504Z,993.19
2019-03-05T10:37:47.486Z,993.25
2019-03-05T10:38:56.928Z,993.22
2019-03-05T10:39:48.467Z,993.17
2019-03-05T10:40:47.456Z,993.22
2019-03-05T10:41:47.448Z,993.23
2019-03-05T10:42:47.437Z,993.22
2019-03-05T10:43:47.419Z,993.21
2019-03-05T10:44:47.412Z,993.18
2019-03-05T10:45:47.405Z,993.19
2019-03-05T10:46:47.391Z,993.15
2019-03-05T10:47:47.375Z,993.16
2019-03-05T10:48:47.362Z,993.18
2019-03-05T10:49:47.351Z,993.30
2019-03-05T10:50:47.347Z,993.26
2019-03-05T10:51:47.331Z,993.31
2019-03-05T10:52:47.319Z,993.34
2019-03-05T10:53:47.327Z,993.33
2019-03-05T10:54:47.303Z,993.20
2019-03-05T10:55:47.295Z,993.25
2019-03-05T10:56:47.283Z,993.28
2019-03-05T10:57:47.318Z,993.33
2019-03-05T10:58:47.255Z,993.22
2019-03-05T10:59:47.254Z,993.26
2019-03-05T11:00:47.251Z,993.24
2019-03-05T11:01:47.222Z,993.24
2019-03-05T11:02:47.207Z,993.21
2019-03-05T11:03:47.205Z,993.19
2019-03-05T11:04:47.194Z,993.20
2019-03-05T11:05:47.177Z,993.27
2019-03-05T11:06:47.166Z,993.28
2019-03-05T11:07:47.155Z,993.29
2019-03-05T11:08:47.158Z,993.33
2019-03-05T11:09:47.135Z,993.29
2019-03-05T11:10:47.127Z,993.34
2019-03-05T11:11:47.112Z,993.20
2019-03-05T11:12:47.100Z,993.16
2019-03-05T11:13:47.098Z,993.19
2019-03-05T11:14:47.077Z,993.24
2019-03-05T11:15:47.091Z,993.20
2019-03-05T11:16:47.063Z,993.21
2019-03-05T11:17:47.044Z,993.20
2019-03-05T11:18:47.035Z,993.23
2019-03-05T11:19:47.026Z,993.27
2019-03-05T11:20:47.015Z,993.20
2019-03-05T11:21:47.004Z,993.10
2019-03-05T11:22:46.995Z,993.06
2019-03-05T11:23:46.983Z,993.14
2019-03-05T11:24:46.966Z,993.14
2019-03-05T11:25:46.960Z,993.12
2019-03-05T11:26:46.952Z,993.13
2019-03-05T11:27:46.937Z,993.17
2019-03-05T11:28:46.925Z,993.17
2019-03-05T11:29:46.917Z,993.13
2019-03-05T11:30:46.905Z,993.15
2019-03-05T11:31:46.892Z,993.11
2019-03-05T11:32:46.885Z,993.13
2019-03-05T11:33:46.871Z,993.14
2019-03-05T11:34:46.869Z,993.13
2019-03-05T11:35:46.851Z,993.15
2019-03-05T11:36:46.835Z,993.17
2019-03-05T11:37:46.826Z,993.15
2019-03-05T11:38:46.816Z,993.21
2019-03-05T11:39:46.809Z,993.20
2019-03-05T11:40:46.795Z,993.29
2019-03-05T11:41:46.782Z,993.22
2019-03-05T11:42:46.801Z,993.23
2019-03-05T11:43:46.758Z,993.27
2019-03-05T11:44:58.817Z,993.22
2019-03-05T11:45:47.744Z,993.22
2019-03-05T11:46:46.729Z,993.26
2019-03-05T11:47:46.720Z,993.28
2019-03-05T11:48:46.712Z,993.40
2019-03-05T11:49:46.702Z,993.42
2019-03-05T11:50:46.691Z,993.38
2019-03-05T11:51:46.673Z,993.30
2019-03-05T11:52:46.662Z,993.30
2019-03-05T11:53:46.650Z,993.23
2019-03-05T11:54:46.644Z,993.24
2019-03-05T11:55:46.632Z,993.25
2019-03-05T11:56:46.624Z,993.23
2019-03-05T11:57:46.609Z,993.24
2019-03-05T11:58:46.597Z,993.24
2019-03-05T11:59:46.587Z,993.29
2019-03-05T12:00:46.578Z,993.37
2019-03-05T12:01:46.562Z,993.27
2019-03-05T12:02:46.555Z,993.29
2019-03-05T12:03:46.544Z,993.34
2019-03-05T12:04:46.537Z,993.34
2019-03-05T12:05:46.525Z,993.38
2019-03-05T12:06:46.517Z,993.35
2019-03-05T12:07:46.497Z,993.35
2019-03-05T12:08:46.493Z,993.34
2019-03-05T12:09:46.484Z,993.38
2019-03-05T12:10:46.477Z,993.39
2019-03-05T12:11:46.456Z,993.37
2019-03-05T12:12:46.451Z,993.37
2019-03-05T12:13:46.441Z,993.31
2019-03-05T12:14:46.426Z,993.29
2019-03-05T12:15:46.425Z,993.23
2019-03-05T12:16:46.402Z,993.24
2019-03-05T12:17:46.395Z,993.25
2019-03-05T12:18:46.380Z,993.19
2019-03-05T12:19:46.429Z,993.26
2019-03-05T12:20:46.359Z,993.20
2019-03-05T12:21:46.353Z,993.40
2019-03-05T12:22:46.339Z,993.51
2019-03-05T12:23:47.331Z,993.44
2019-03-05T12:24:46.313Z,993.44
2019-03-05T12:25:46.309Z,993.41
2019-03-05T12:26:46.311Z,993.40
2019-03-05T12:27:46.282Z,993.32
2019-03-05T12:28:46.267Z,993.36